www.cux-wetter.de
Wetterdaten: Mittwoch, 25.06.2008
Datum Zeit Temp. A. Feuchte A. Luftdruck Regen Wind Richtung Richtung Sonnenschein Solar Taupunkt Windchill Windben
25.06.2008 00:00 13,2 C 70 % 1017,5 hPa 0,0 l/m 8,8 km/h (2 Bft) N-NO 25 0 min 0 W/m 7,9 C 11,8 C 8,8 km/h (2 Bft)
25.06.2008 00:05 13,2 C 70 % 1017,5 hPa 0,0 l/m 5,0 km/h (1 Bft) N-NO 15 0 min 0 W/m 7,9 C 13,2 C 5,0 km/h (1 Bft)
25.06.2008 00:10 13,2 C 70 % 1017,5 hPa 0,0 l/m 5,4 km/h (2 Bft) N-NO 25 0 min 0 W/m 7,9 C 13,2 C 5,4 km/h (2 Bft)
25.06.2008 00:15 13,2 C 70 % 1017,5 hPa 0,0 l/m 1,0 km/h (0 Bft) N 360 0 min 0 W/m 7,9 C 13,2 C 1,0 km/h (0 Bft)
25.06.2008 00:20 13,2 C 70 % 1017,5 hPa 0,0 l/m 8,2 km/h (2 Bft) NO 40 0 min 0 W/m 7,9 C 12,1 C 8,2 km/h (2 Bft)
25.06.2008 00:25 13,2 C 70 % 1017,5 hPa 0,0 l/m 7,0 km/h (2 Bft) O-NO 65 0 min 0 W/m 7,9 C 12,8 C 7,0 km/h (2 Bft)
25.06.2008 00:30 13,1 C 71 % 1017,5 hPa 0,0 l/m 1,4 km/h (1 Bft) O-NO 70 0 min 0 W/m 8,0 C 13,1 C 1,4 km/h (1 Bft)
25.06.2008 00:35 13,0 C 70 % 1017,5 hPa 0,0 l/m 10,3 km/h (2 Bft) N-NO 25 0 min 0 W/m 7,7 C 10,8 C 10,3 km/h (2 Bft)
25.06.2008 00:40 12,9 C 70 % 1017,5 hPa 0,0 l/m 9,6 km/h (2 Bft) NO 40 0 min 0 W/m 7,6 C 11,0 C 9,6 km/h (2 Bft)
25.06.2008 00:45 12,8 C 70 % 1017,5 hPa 0,0 l/m 0,3 km/h (0 Bft) SO 125 0 min 0 W/m 7,5 C 12,8 C 0,3 km/h (0 Bft)
25.06.2008 00:50 12,6 C 71 % 1017,5 hPa 0,0 l/m 7,4 km/h (2 Bft) O-NO 70 0 min 0 W/m 7,5 C 12,0 C 7,4 km/h (2 Bft)
25.06.2008 00:54 12,6 C 71 % 1017,5 hPa 0,0 l/m 6,7 km/h (2 Bft) O-NO 60 0 min 0 W/m 7,5 C 12,4 C 6,7 km/h (2 Bft)
25.06.2008 00:59 12,5 C 72 % 1017,5 hPa 0,0 l/m 5,9 km/h (2 Bft) NO 40 0 min 0 W/m 7,6 C 12,5 C 5,9 km/h (2 Bft)
25.06.2008 01:05 12,4 C 72 % 1017,5 hPa 0,0 l/m 6,3 km/h (2 Bft) NO 45 0 min 0 W/m 7,5 C 12,4 C 6,3 km/h (2 Bft)
25.06.2008 01:09 12,4 C 73 % 1017,5 hPa 0,0 l/m 0,3 km/h (0 Bft) S-SO 150 0 min 0 W/m 7,7 C 12,4 C 0,3 km/h (0 Bft)
25.06.2008 01:14 12,3 C 73 % 1017,5 hPa 0,0 l/m 7,0 km/h (2 Bft) O 95 0 min 0 W/m 7,6 C 11,9 C 7,0 km/h (2 Bft)
25.06.2008 01:19 12,2 C 74 % 1017,5 hPa 0,0 l/m 3,8 km/h (1 Bft) N-NO 25 0 min 0 W/m 7,7 C 12,2 C 3,8 km/h (1 Bft)
25.06.2008 01:24 12,1 C 74 % 1017,5 hPa 0,0 l/m 3,8 km/h (1 Bft) O-SO 110 0 min 0 W/m 7,6 C 12,1 C 3,8 km/h (1 Bft)
25.06.2008 01:29 12,0 C 74 % 1016,5 hPa 0,0 l/m 5,5 km/h (2 Bft) O 100 0 min 0 W/m 7,5 C 12,0 C 5,5 km/h (2 Bft)
25.06.2008 01:34 11,9 C 75 % 1016,5 hPa 0,0 l/m 6,5 km/h (2 Bft) O 80 0 min 0 W/m 7,6 C 11,9 C 6,5 km/h (2 Bft)
25.06.2008 01:39 11,8 C 75 % 1016,5 hPa 0,0 l/m 5,6 km/h (2 Bft) O-NO 70 0 min 0 W/m 7,5 C 11,8 C 5,6 km/h (2 Bft)
25.06.2008 01:44 11,8 C 75 % 1016,5 hPa 0,0 l/m 4,5 km/h (1 Bft) O-SO 115 0 min 0 W/m 7,5 C 11,8 C 4,5 km/h (1 Bft)
25.06.2008 01:50 11,7 C 75 % 1016,5 hPa 0,0 l/m 5,1 km/h (1 Bft) O 100 0 min 0 W/m 7,4 C 11,7 C 5,1 km/h (1 Bft)
25.06.2008 01:55 11,6 C 76 % 1016,5 hPa 0,0 l/m 3,8 km/h (1 Bft) NO 55 0 min 0 W/m 7,5 C 11,6 C 3,8 km/h (1 Bft)
25.06.2008 02:00 11,6 C 76 % 1016,5 hPa 0,0 l/m 1,5 km/h (1 Bft) S-SO 160 0 min 0 W/m 7,5 C 11,6 C 1,5 km/h (1 Bft)
25.06.2008 02:05 11,6 C 76 % 1016,5 hPa 0,0 l/m 0,4 km/h (0 Bft) O-SO 110 0 min 0 W/m 7,5 C 11,6 C 0,4 km/h (0 Bft)
25.06.2008 02:10 11,6 C 76 % 1016,5 hPa 0,0 l/m 4,2 km/h (1 Bft) O-SO 115 0 min 0 W/m 7,5 C 11,6 C 4,2 km/h (1 Bft)
25.06.2008 02:15 11,6 C 76 % 1016,5 hPa 0,0 l/m 0,5 km/h (0 Bft) SO 130 0 min 0 W/m 7,5 C 11,6 C 0,5 km/h (0 Bft)
25.06.2008 02:20 11,5 C 76 % 1016,5 hPa 0,0 l/m 3,0 km/h (1 Bft) O-SO 110 0 min 0 W/m 7,4 C 11,5 C 3,0 km/h (1 Bft)
25.06.2008 02:25 11,4 C 77 % 1016,5 hPa 0,0 l/m 0,4 km/h (0 Bft) O-SO 105 0 min 0 W/m 7,5 C 11,4 C 0,4 km/h (0 Bft)
25.06.2008 02:30 11,4 C 77 % 1016,5 hPa 0,0 l/m 4,3 km/h (1 Bft) O-SO 115 0 min 0 W/m 7,5 C 11,4 C 4,3 km/h (1 Bft)
25.06.2008 02:35 11,3 C 78 % 1016,5 hPa 0,0 l/m 1,9 km/h (1 Bft) O-SO 110 0 min 0 W/m 7,6 C 11,3 C 1,9 km/h (1 Bft)
25.06.2008 02:40 11,3 C 79 % 1016,5 hPa 0,0 l/m 4,6 km/h (1 Bft) O 90 0 min 0 W/m 7,8 C 11,3 C 4,6 km/h (1 Bft)
25.06.2008 02:45 11,3 C 79 % 1016,5 hPa 0,0 l/m 7,9 km/h (2 Bft) S-SO 150 0 min 0 W/m 7,8 C 10,3 C 7,9 km/h (2 Bft)
25.06.2008 02:50 11,3 C 79 % 1016,5 hPa 0,0 l/m 5,2 km/h (1 Bft) S-SO 155 0 min 0 W/m 7,8 C 11,3 C 5,2 km/h (1 Bft)
25.06.2008 02:54 11,3 C 79 % 1016,5 hPa 0,0 l/m 11,1 km/h (2 Bft) O 80 0 min 0 W/m 7,8 C 8,5 C 11,1 km/h (2 Bft)
25.06.2008 02:59 11,3 C 80 % 1016,5 hPa 0,0 l/m 8,8 km/h (2 Bft) SO 145 0 min 0 W/m 8,0 C 9,7 C 8,8 km/h (2 Bft)
25.06.2008 03:04 11,4 C 80 % 1016,5 hPa 0,0 l/m 11,5 km/h (2 Bft) S-SO 160 0 min 0 W/m 8,1 C 8,4 C 11,5 km/h (2 Bft)
25.06.2008 03:09 11,4 C 81 % 1016,5 hPa 0,0 l/m 5,9 km/h (2 Bft) O-SO 105 0 min 0 W/m 8,3 C 11,4 C 5,9 km/h (2 Bft)
25.06.2008 03:14 11,5 C 80 % 1016,5 hPa 0,0 l/m 7,4 km/h (2 Bft) SO 135 0 min 0 W/m 8,2 C 10,8 C 7,4 km/h (2 Bft)
25.06.2008 03:19 11,5 C 80 % 1016,5 hPa 0,0 l/m 9,6 km/h (2 Bft) SO 145 0 min 0 W/m 8,2 C 9,5 C 9,6 km/h (2 Bft)
25.06.2008 03:24 11,6 C 81 % 1015,5 hPa 0,0 l/m 11,7 km/h (2 Bft) O-SO 115 0 min 0 W/m 8,5 C 8,5 C 11,7 km/h (2 Bft)
25.06.2008 03:29 11,6 C 82 % 1015,5 hPa 0,0 l/m 13,0 km/h (3 Bft) O-SO 105 0 min 0 W/m 8,6 C 7,9 C 13,0 km/h (3 Bft)
25.06.2008 03:34 11,6 C 82 % 1015,5 hPa 0,0 l/m 11,4 km/h (2 Bft) SO 125 0 min 0 W/m 8,6 C 8,6 C 11,4 km/h (2 Bft)
25.06.2008 03:40 11,6 C 82 % 1015,5 hPa 0,0 l/m 12,4 km/h (2 Bft) O 100 0 min 0 W/m 8,6 C 8,2 C 12,4 km/h (2 Bft)
25.06.2008 03:45 11,6 C 81 % 1015,5 hPa 0,0 l/m 10,1 km/h (2 Bft) S-SO 150 0 min 0 W/m 8,5 C 9,3 C 10,1 km/h (2 Bft)
25.06.2008 03:50 11,6 C 82 % 1015,5 hPa 0,0 l/m 7,9 km/h (2 Bft) O-NO 75 0 min 0 W/m 8,6 C 10,6 C 7,9 km/h (2 Bft)
25.06.2008 03:55 11,6 C 81 % 1015,5 hPa 0,0 l/m 8,8 km/h (2 Bft) SO 145 0 min 0 W/m 8,5 C 10,0 C 8,8 km/h (2 Bft)
25.06.2008 04:00 11,6 C 82 % 1015,5 hPa 0,0 l/m 12,5 km/h (2 Bft) O 100 0 min 0 W/m 8,6 C 8,1 C 12,5 km/h (2 Bft)
25.06.2008 04:05 11,6 C 82 % 1015,5 hPa 0,0 l/m 11,4 km/h (2 Bft) O-SO 110 0 min 0 W/m 8,6 C 8,6 C 11,4 km/h (2 Bft)
25.06.2008 04:10 11,6 C 81 % 1015,5 hPa 0,0 l/m 14,9 km/h (3 Bft) SO 125 0 min 0 W/m 8,5 C 7,1 C 14,9 km/h (3 Bft)
25.06.2008 04:15 11,6 C 82 % 1015,5 hPa 0,0 l/m 12,7 km/h (3 Bft) O-SO 120 0 min 0 W/m 8,6 C 8,0 C 12,7 km/h (3 Bft)
25.06.2008 04:20 11,7 C 82 % 1015,5 hPa 0,0 l/m 12,0 km/h (2 Bft) O-SO 115 0 min 0 W/m 8,7 C 8,5 C 12,0 km/h (2 Bft)
25.06.2008 04:25 11,7 C 81 % 1015,5 hPa 0,0 l/m 16,2 km/h (3 Bft) O-SO 115 0 min 0 W/m 8,5 C 6,7 C 16,2 km/h (3 Bft)
25.06.2008 04:29 11,7 C 82 % 1015,5 hPa 0,0 l/m 10,6 km/h (2 Bft) O 85 0 min 0 W/m 8,7 C 9,2 C 10,6 km/h (2 Bft)
25.06.2008 04:34 11,7 C 82 % 1015,5 hPa 0,0 l/m 12,1 km/h (2 Bft) S-SO 155 0 min 0 W/m 8,7 C 8,4 C 12,1 km/h (2 Bft)
25.06.2008 04:39 11,7 C 82 % 1015,5 hPa 0,0 l/m 8,9 km/h (2 Bft) O-SO 120 0 min 0 W/m 8,7 C 10,1 C 8,9 km/h (2 Bft)
25.06.2008 04:44 11,7 C 82 % 1015,5 hPa 0,0 l/m 9,4 km/h (2 Bft) O-SO 105 0 min 0 W/m 8,7 C 9,8 C 9,4 km/h (2 Bft)
25.06.2008 04:49 12,1 C 83 % 1015,5 hPa 0,0 l/m 11,3 km/h (2 Bft) O-SO 120 0 min 0 W/m 9,3 C 9,3 C 11,3 km/h (2 Bft)
25.06.2008 04:54 12,6 C 82 % 1015,5 hPa 0,0 l/m 9,8 km/h (2 Bft) SO 145 0 min 0 W/m 9,6 C 10,6 C 9,8 km/h (2 Bft)
25.06.2008 04:59 12,8 C 81 % 1015,5 hPa 0,0 l/m 12,6 km/h (3 Bft) SO 130 0 min 0 W/m 9,6 C 9,5 C 12,6 km/h (3 Bft)
25.06.2008 05:04 13,0 C 80 % 1014,5 hPa 0,0 l/m 11,9 km/h (2 Bft) SO 125 0 min 0 W/m 9,6 C 10,0 C 11,9 km/h (2 Bft)
25.06.2008 05:09 13,2 C 79 % 1014,5 hPa 0,0 l/m 12,8 km/h (3 Bft) SO 125 0 min 0 W/m 9,6 C 9,9 C 12,8 km/h (3 Bft)
25.06.2008 05:10 13,2 C 79 % 1014,5 hPa 0,0 l/m 12,8 km/h (3 Bft) SO 125 0 min 0 W/m 9,6 C 9,9 C 12,8 km/h (3 Bft)
25.06.2008 05:15 13,3 C 79 % 1015,5 hPa 0,0 l/m 8,1 km/h (2 Bft) O-SO 120 0 min 0 W/m 9,7 C 12,3 C 8,1 km/h (2 Bft)
25.06.2008 05:20 13,4 C 79 % 1015,5 hPa 0,0 l/m 13,1 km/h (3 Bft) O 100 0 min 0 W/m 9,8 C 10,0 C 13,1 km/h (3 Bft)
25.06.2008 05:25 13,7 C 79 % 1014,5 hPa 0,0 l/m 9,7 km/h (2 Bft) SO 135 0 min 0 W/m 10,1 C 11,8 C 9,7 km/h (2 Bft)
25.06.2008 05:30 13,8 C 77 % 1014,5 hPa 0,0 l/m 15,1 km/h (3 Bft) O 95 0 min 0 W/m 9,8 C 9,7 C 15,1 km/h (3 Bft)
25.06.2008 05:35 13,6 C 77 % 1014,5 hPa 0,0 l/m 15,8 km/h (3 Bft) SO 125 0 min 0 W/m 9,6 C 9,2 C 15,8 km/h (3 Bft)
25.06.2008 05:40 13,8 C 77 % 1014,5 hPa 0,0 l/m 5,8 km/h (2 Bft) SO 135 0 min 0 W/m 9,8 C 13,8 C 5,8 km/h (2 Bft)
25.06.2008 05:45 13,9 C 77 % 1014,5 hPa 0,0 l/m 11,3 km/h (2 Bft) SO 135 0 min 0 W/m 9,9 C 11,3 C 11,3 km/h (2 Bft)
25.06.2008 05:50 13,9 C 77 % 1014,5 hPa 0,0 l/m 15,1 km/h (3 Bft) O-SO 115 0 min 0 W/m 9,9 C 9,8 C 15,1 km/h (3 Bft)
25.06.2008 05:54 13,8 C 77 % 1014,5 hPa 0,0 l/m 15,0 km/h (3 Bft) O-SO 105 0 min 0 W/m 9,8 C 9,7 C 15,0 km/h (3 Bft)
25.06.2008 05:59 13,7 C 77 % 1014,5 hPa 0,0 l/m 14,2 km/h (3 Bft) O 100 0 min 0 W/m 9,7 C 9,9 C 14,2 km/h (3 Bft)
25.06.2008 06:04 13,6 C 77 % 1014,5 hPa 0,0 l/m 14,2 km/h (3 Bft) O 100 0 min 0 W/m 9,6 C 9,8 C 14,2 km/h (3 Bft)
25.06.2008 06:09 13,7 C 77 % 1014,5 hPa 0,0 l/m 11,5 km/h (2 Bft) O-SO 120 0 min 0 W/m 9,7 C 11,0 C 11,5 km/h (2 Bft)
25.06.2008 06:14 13,8 C 77 % 1014,5 hPa 0,0 l/m 13,8 km/h (3 Bft) SO 125 0 min 0 W/m 9,8 C 10,2 C 13,8 km/h (3 Bft)
25.06.2008 06:19 13,8 C 77 % 1014,5 hPa 0,0 l/m 11,3 km/h (2 Bft) SO 135 0 min 0 W/m 9,8 C 11,2 C 11,3 km/h (2 Bft)
25.06.2008 06:24 14,0 C 77 % 1014,5 hPa 0,0 l/m 10,4 km/h (2 Bft) SO 125 0 min 0 W/m 10,0 C 11,8 C 10,4 km/h (2 Bft)
25.06.2008 06:29 14,0 C 77 % 1014,5 hPa 0,0 l/m 9,8 km/h (2 Bft) SO 125 0 min 0 W/m 10,0 C 12,1 C 9,8 km/h (2 Bft)
25.06.2008 06:34 14,1 C 77 % 1014,5 hPa 0,0 l/m 14,6 km/h (3 Bft) SO 125 0 min 0 W/m 10,1 C 10,2 C 14,6 km/h (3 Bft)
25.06.2008 06:40 14,4 C 77 % 1014,5 hPa 0,0 l/m 19,7 km/h (3 Bft) SO 135 0 min 0 W/m 10,4 C 9,1 C 19,7 km/h (3 Bft)
25.06.2008 06:45 14,3 C 77 % 1014,5 hPa 0,0 l/m 19,5 km/h (3 Bft) O-SO 115 0 min 0 W/m 10,3 C 9,0 C 19,5 km/h (3 Bft)
25.06.2008 06:50 14,4 C 77 % 1014,5 hPa 0,0 l/m 11,4 km/h (2 Bft) O-SO 115 0 min 0 W/m 10,4 C 11,8 C 11,4 km/h (2 Bft)
25.06.2008 06:55 14,3 C 76 % 1013,5 hPa 0,0 l/m 16,8 km/h (3 Bft) SO 125 0 min 0 W/m 10,1 C 9,8 C 16,8 km/h (3 Bft)
25.06.2008 07:00 14,3 C 76 % 1013,5 hPa 0,0 l/m 13,9 km/h (3 Bft) O-SO 115 0 min 0 W/m 10,1 C 10,7 C 13,9 km/h (3 Bft)
25.06.2008 07:05 14,5 C 77 % 1013,5 hPa 0,0 l/m 17,0 km/h (3 Bft) SO 140 0 min 0 W/m 10,5 C 9,9 C 17,0 km/h (3 Bft)
25.06.2008 07:10 14,6 C 77 % 1013,5 hPa 0,0 l/m 18,5 km/h (3 Bft) O-SO 120 0 min 0 W/m 10,6 C 9,6 C 18,5 km/h (3 Bft)
25.06.2008 07:15 14,8 C 76 % 1013,5 hPa 0,0 l/m 14,1 km/h (3 Bft) SO 130 0 min 0 W/m 10,6 C 11,3 C 14,1 km/h (3 Bft)
25.06.2008 07:20 15,0 C 76 % 1013,5 hPa 0,0 l/m 14,1 km/h (3 Bft) O-SO 110 0 min 0 W/m 10,8 C 11,5 C 14,1 km/h (3 Bft)
25.06.2008 07:24 15,0 C 76 % 1013,5 hPa 0,0 l/m 11,0 km/h (2 Bft) SO 135 0 min 0 W/m 10,8 C 12,7 C 11,0 km/h (2 Bft)
25.06.2008 07:29 15,0 C 76 % 1013,5 hPa 0,0 l/m 13,6 km/h (3 Bft) O-SO 120 0 min 0 W/m 10,8 C 11,7 C 13,6 km/h (3 Bft)
25.06.2008 07:34 15,2 C 74 % 1013,5 hPa 0,0 l/m 16,0 km/h (3 Bft) SO 125 0 min 0 W/m 10,6 C 11,1 C 16,0 km/h (3 Bft)
25.06.2008 07:39 15,2 C 74 % 1013,5 hPa 0,0 l/m 14,5 km/h (3 Bft) O-SO 115 0 min 0 W/m 10,6 C 11,6 C 14,5 km/h (3 Bft)
25.06.2008 07:44 15,3 C 74 % 1013,5 hPa 0,0 l/m 16,6 km/h (3 Bft) SO 140 0 min 0 W/m 10,7 C 11,1 C 16,6 km/h (3 Bft)
25.06.2008 07:49 15,2 C 73 % 1013,5 hPa 0,0 l/m 20,1 km/h (4 Bft) S-SO 150 0 min 0 W/m 10,4 C 10,0 C 20,1 km/h (4 Bft)
25.06.2008 07:55 15,0 C 72 % 1013,5 hPa 0,0 l/m 18,6 km/h (3 Bft) S-SO 150 0 min 0 W/m 10,0 C 10,1 C 18,6 km/h (3 Bft)
25.06.2008 08:00 15,0 C 72 % 1013,5 hPa 0,0 l/m 18,1 km/h (3 Bft) SO 130 0 min 0 W/m 10,0 C 10,3 C 18,1 km/h (3 Bft)
25.06.2008 08:05 15,3 C 72 % 1013,5 hPa 0,0 l/m 19,1 km/h (3 Bft) O-SO 120 0 min 0 W/m 10,3 C 10,4 C 19,1 km/h (3 Bft)
25.06.2008 08:10 15,4 C 71 % 1013,5 hPa 0,0 l/m 18,9 km/h (3 Bft) O-SO 115 0 min 0 W/m 10,2 C 10,5 C 18,9 km/h (3 Bft)
25.06.2008 08:15 15,6 C 71 % 1013,5 hPa 0,0 l/m 28,8 km/h (5 Bft) SO 125 0 min 0 W/m 10,4 C 8,7 C 28,8 km/h (5 Bft)
25.06.2008 08:20 15,9 C 69 % 1013,5 hPa 0,0 l/m 15,2 km/h (3 Bft) SO 125 0 min 0 W/m 10,2 C 12,2 C 15,2 km/h (3 Bft)
25.06.2008 08:25 15,9 C 67 % 1013,5 hPa 0,0 l/m 24,4 km/h (4 Bft) SO 130 0 min 0 W/m 9,8 C 9,9 C 24,4 km/h (4 Bft)
25.06.2008 08:30 16,0 C 66 % 1013,5 hPa 0,0 l/m 21,9 km/h (4 Bft) O 100 0 min 0 W/m 9,7 C 10,6 C 21,9 km/h (4 Bft)
25.06.2008 08:35 16,1 C 65 % 1013,5 hPa 0,0 l/m 18,6 km/h (3 Bft) SO 130 0 min 0 W/m 9,5 C 11,5 C 18,6 km/h (3 Bft)
25.06.2008 08:40 16,2 C 65 % 1013,5 hPa 0,0 l/m 21,2 km/h (4 Bft) SO 130 0 min 0 W/m 9,6 C 11,0 C 21,2 km/h (4 Bft)
25.06.2008 08:44 16,2 C 66 % 1012,5 hPa 0,0 l/m 13,1 km/h (3 Bft) S-SO 155 0 min 0 W/m 9,8 C 13,3 C 13,1 km/h (3 Bft)
25.06.2008 08:49 16,3 C 65 % 1012,5 hPa 0,0 l/m 19,0 km/h (3 Bft) O-SO 115 0 min 0 W/m 9,7 C 11,7 C 19,0 km/h (3 Bft)
25.06.2008 08:54 16,4 C 65 % 1013,5 hPa 0,0 l/m 28,1 km/h (5 Bft) O-SO 120 0 min 0 W/m 9,8 C 10,0 C 28,1 km/h (5 Bft)
25.06.2008 08:59 16,4 C 65 % 1013,5 hPa 0,0 l/m 19,6 km/h (3 Bft) SO 145 0 min 0 W/m 9,8 C 11,6 C 19,6 km/h (3 Bft)
25.06.2008 09:04 16,4 C 65 % 1012,5 hPa 0,0 l/m 19,6 km/h (3 Bft) SO 145 0 min 0 W/m 9,8 C 11,6 C 19,6 km/h (3 Bft)
25.06.2008 09:09 16,8 C 64 % 1012,5 hPa 0,0 l/m 20,1 km/h (4 Bft) SO 135 0 min 0 W/m 10,0 C 12,0 C 20,1 km/h (4 Bft)
25.06.2008 09:14 17,1 C 63 % 1012,5 hPa 0,0 l/m 20,8 km/h (4 Bft) SO 135 0 min 0 W/m 10,0 C 12,3 C 20,8 km/h (4 Bft)
25.06.2008 09:19 17,2 C 63 % 1012,5 hPa 0,0 l/m 20,2 km/h (4 Bft) S-SO 155 0 min 0 W/m 10,1 C 12,5 C 20,2 km/h (4 Bft)
25.06.2008 09:25 17,4 C 63 % 1012,5 hPa 0,0 l/m 17,1 km/h (3 Bft) SO 130 0 min 0 W/m 10,3 C 13,5 C 17,1 km/h (3 Bft)
25.06.2008 09:30 17,6 C 62 % 1012,5 hPa 0,0 l/m 19,6 km/h (3 Bft) O 95 0 min 0 W/m 10,2 C 13,2 C 19,6 km/h (3 Bft)
25.06.2008 09:35 18,1 C 61 % 1012,5 hPa 0,0 l/m 17,8 km/h (3 Bft) SO 145 0 min 0 W/m 10,5 C 14,2 C 17,8 km/h (3 Bft)
25.06.2008 09:40 18,4 C 61 % 1012,5 hPa 0,0 l/m 21,4 km/h (4 Bft) SO 145 0 min 0 W/m 10,7 C 13,9 C 21,4 km/h (4 Bft)
25.06.2008 09:45 18,9 C 59 % 1012,5 hPa 0,0 l/m 25,9 km/h (4 Bft) SO 135 0 min 0 W/m 10,7 C 13,8 C 25,9 km/h (4 Bft)
25.06.2008 09:50 18,8 C 58 % 1012,5 hPa 0,0 l/m 24,8 km/h (4 Bft) SO 140 0 min 0 W/m 10,4 C 13,8 C 24,8 km/h (4 Bft)
25.06.2008 09:55 18,8 C 58 % 1012,5 hPa 0,0 l/m 17,3 km/h (3 Bft) SO 130 0 min 0 W/m 10,4 C 15,2 C 17,3 km/h (3 Bft)
25.06.2008 09:59 18,8 C 58 % 1012,5 hPa 0,0 l/m 18,8 km/h (3 Bft) SO 140 0 min 0 W/m 10,4 C 14,9 C 18,8 km/h (3 Bft)
25.06.2008 10:05 18,9 C 59 % 1012,5 hPa 0,0 l/m 22,3 km/h (4 Bft) SO 145 0 min 0 W/m 10,7 C 14,3 C 22,3 km/h (4 Bft)
25.06.2008 10:09 19,2 C 59 % 1012,5 hPa 0,0 l/m 20,5 km/h (4 Bft) SO 140 0 min 0 W/m 11,0 C 15,1 C 20,5 km/h (4 Bft)
25.06.2008 10:14 19,6 C 56 % 1012,5 hPa 0,0 l/m 25,0 km/h (4 Bft) SO 140 0 min 0 W/m 10,6 C 14,8 C 25,0 km/h (4 Bft)
25.06.2008 10:19 19,5 C 58 % 1012,5 hPa 0,0 l/m 18,5 km/h (3 Bft) SO 125 0 min 0 W/m 11,0 C 15,9 C 18,5 km/h (3 Bft)
25.06.2008 10:24 19,5 C 57 % 1011,5 hPa 0,0 l/m 13,2 km/h (3 Bft) SO 130 0 min 0 W/m 10,8 C 17,1 C 13,2 km/h (3 Bft)
25.06.2008 10:29 19,4 C 56 % 1011,5 hPa 0,0 l/m 17,8 km/h (3 Bft) SO 140 0 min 0 W/m 10,4 C 15,9 C 17,8 km/h (3 Bft)
25.06.2008 10:35 19,1 C 56 % 1011,5 hPa 0,0 l/m 22,0 km/h (4 Bft) SO 130 0 min 0 W/m 10,1 C 14,7 C 22,0 km/h (4 Bft)
25.06.2008 10:40 19,0 C 58 % 1011,5 hPa 0,0 l/m 20,1 km/h (4 Bft) O-SO 115 0 min 0 W/m 10,5 C 14,9 C 20,1 km/h (4 Bft)
25.06.2008 10:45 19,2 C 57 % 1011,5 hPa 0,0 l/m 15,8 km/h (3 Bft) SO 145 0 min 0 W/m 10,5 C 16,1 C 15,8 km/h (3 Bft)
25.06.2008 10:50 19,6 C 57 % 1011,5 hPa 0,0 l/m 17,8 km/h (3 Bft) SO 140 0 min 0 W/m 10,8 C 16,1 C 17,8 km/h (3 Bft)
25.06.2008 10:55 20,2 C 54 % 1011,5 hPa 0,0 l/m 19,6 km/h (3 Bft) O-SO 120 0 min 0 W/m 10,6 C 16,5 C 19,6 km/h (3 Bft)
25.06.2008 11:00 20,2 C 55 % 1011,5 hPa 0,0 l/m 22,1 km/h (4 Bft) SO 135 0 min 0 W/m 10,9 C 16,1 C 22,1 km/h (4 Bft)
25.06.2008 11:05 20,6 C 56 % 1011,5 hPa 0,0 l/m 23,6 km/h (4 Bft) SO 135 0 min 0 W/m 11,5 C 16,4 C 23,6 km/h (4 Bft)
25.06.2008 11:10 21,4 C 52 % 1011,5 hPa 0,0 l/m 20,9 km/h (4 Bft) SO 135 0 min 0 W/m 11,1 C 17,9 C 20,9 km/h (4 Bft)
25.06.2008 11:15 21,0 C 53 % 1011,5 hPa 0,0 l/m 18,4 km/h (3 Bft) SO 140 0 min 0 W/m 11,0 C 17,8 C 18,4 km/h (3 Bft)
25.06.2008 11:19 20,8 C 52 % 1011,5 hPa 0,0 l/m 18,5 km/h (3 Bft) O 100 0 min 0 W/m 10,6 C 17,5 C 18,5 km/h (3 Bft)
25.06.2008 11:24 20,8 C 53 % 1011,5 hPa 0,0 l/m 17,8 km/h (3 Bft) O 85 0 min 0 W/m 10,9 C 17,6 C 17,8 km/h (3 Bft)
25.06.2008 11:29 21,4 C 54 % 1011,5 hPa 0,0 l/m 8,2 km/h (2 Bft) O 100 0 min 0 W/m 11,7 C 20,8 C 8,2 km/h (2 Bft)
25.06.2008 11:34 21,8 C 52 % 1011,5 hPa 0,0 l/m 17,1 km/h (3 Bft) O-SO 120 0 min 0 W/m 11,5 C 19,0 C 17,1 km/h (3 Bft)
25.06.2008 11:39 22,1 C 51 % 1011,5 hPa 0,0 l/m 15,3 km/h (3 Bft) O 90 0 min 0 W/m 11,5 C 19,7 C 15,3 km/h (3 Bft)
25.06.2008 11:45 22,4 C 51 % 1011,5 hPa 0,0 l/m 19,1 km/h (3 Bft) O 90 0 min 0 W/m 11,8 C 19,4 C 19,1 km/h (3 Bft)
25.06.2008 11:50 22,7 C 49 % 1011,5 hPa 0,0 l/m 15,5 km/h (3 Bft) O-SO 105 0 min 0 W/m 11,4 C 20,4 C 15,5 km/h (3 Bft)
25.06.2008 11:55 22,8 C 48 % 1011,5 hPa 0,0 l/m 17,3 km/h (3 Bft) O-SO 105 0 min 0 W/m 11,2 C 20,2 C 17,3 km/h (3 Bft)
25.06.2008 12:00 22,9 C 48 % 1011,5 hPa 0,0 l/m 20,0 km/h (4 Bft) O 90 0 min 0 W/m 11,3 C 20,0 C 20,0 km/h (4 Bft)
25.06.2008 12:04 22,8 C 49 % 1011,5 hPa 0,0 l/m 16,9 km/h (3 Bft) O-NO 75 0 min 0 W/m 11,5 C 20,3 C 16,9 km/h (3 Bft)
25.06.2008 12:09 23,1 C 48 % 1011,5 hPa 0,0 l/m 18,6 km/h (3 Bft) SO 140 0 min 0 W/m 11,5 C 20,4 C 18,6 km/h (3 Bft)
25.06.2008 12:15 23,2 C 47 % 1011,5 hPa 0,0 l/m 15,0 km/h (3 Bft) O 80 0 min 0 W/m 11,3 C 21,1 C 15,0 km/h (3 Bft)
25.06.2008 12:20 23,5 C 47 % 1011,5 hPa 0,0 l/m 9,0 km/h (2 Bft) O 90 0 min 0 W/m 11,5 C 22,8 C 9,0 km/h (2 Bft)
25.06.2008 12:24 23,6 C 47 % 1011,5 hPa 0,0 l/m 18,7 km/h (3 Bft) O 90 0 min 0 W/m 11,6 C 21,0 C 18,7 km/h (3 Bft)
25.06.2008 12:25 23,6 C 47 % 1011,5 hPa 0,0 l/m 18,7 km/h (3 Bft) O 90 0 min 0 W/m 11,6 C 21,0 C 18,7 km/h (3 Bft)
25.06.2008 12:30 23,4 C 45 % 1011,5 hPa 0,0 l/m 16,1 km/h (3 Bft) O 85 0 min 0 W/m 10,8 C 21,2 C 16,1 km/h (3 Bft)
25.06.2008 12:35 23,3 C 48 % 1011,5 hPa 0,0 l/m 14,8 km/h (3 Bft) O-NO 75 0 min 0 W/m 11,7 C 21,3 C 14,8 km/h (3 Bft)
25.06.2008 12:39 23,2 C 46 % 1011,5 hPa 0,0 l/m 16,3 km/h (3 Bft) O 85 0 min 0 W/m 10,9 C 20,9 C 16,3 km/h (3 Bft)
25.06.2008 12:44 23,2 C 46 % 1011,5 hPa 0,0 l/m 10,6 km/h (2 Bft) SO 135 0 min 0 W/m 10,9 C 22,0 C 10,6 km/h (2 Bft)
25.06.2008 12:49 23,4 C 46 % 1011,5 hPa 0,0 l/m 16,5 km/h (3 Bft) SO 140 0 min 0 W/m 11,1 C 21,1 C 16,5 km/h (3 Bft)
25.06.2008 12:55 23,5 C 45 % 1010,5 hPa 0,0 l/m 15,0 km/h (3 Bft) O-SO 105 0 min 0 W/m 10,9 C 21,5 C 15,0 km/h (3 Bft)
25.06.2008 13:00 23,5 C 45 % 1010,5 hPa 0,0 l/m 18,7 km/h (3 Bft) O-SO 105 0 min 0 W/m 10,9 C 20,9 C 18,7 km/h (3 Bft)
25.06.2008 13:05 23,6 C 45 % 1010,5 hPa 0,0 l/m 14,7 km/h (3 Bft) O 90 0 min 0 W/m 11,0 C 21,7 C 14,7 km/h (3 Bft)
25.06.2008 13:10 23,7 C 47 % 1010,5 hPa 0,0 l/m 11,4 km/h (2 Bft) O-SO 110 0 min 0 W/m 11,7 C 22,4 C 11,4 km/h (2 Bft)
25.06.2008 13:15 24,0 C 44 % 1010,5 hPa 0,0 l/m 9,7 km/h (2 Bft) SO 145 0 min 0 W/m 11,0 C 23,1 C 9,7 km/h (2 Bft)
25.06.2008 13:20 24,1 C 45 % 1010,5 hPa 0,0 l/m 11,5 km/h (2 Bft) SO 145 0 min 0 W/m 11,4 C 22,9 C 11,5 km/h (2 Bft)
25.06.2008 13:25 24,3 C 45 % 1010,5 hPa 0,0 l/m 11,0 km/h (2 Bft) O-SO 110 0 min 0 W/m 11,6 C 23,2 C 11,0 km/h (2 Bft)
25.06.2008 13:30 24,2 C 43 % 1010,5 hPa 0,0 l/m 13,2 km/h (3 Bft) O-SO 110 0 min 0 W/m 10,8 C 22,6 C 13,2 km/h (3 Bft)
25.06.2008 13:34 24,0 C 45 % 1010,5 hPa 0,0 l/m 12,2 km/h (2 Bft) O 100 0 min 0 W/m 11,3 C 22,6 C 12,2 km/h (2 Bft)
25.06.2008 13:39 23,9 C 45 % 1010,5 hPa 0,0 l/m 8,8 km/h (2 Bft) O 95 0 min 0 W/m 11,2 C 23,2 C 8,8 km/h (2 Bft)
25.06.2008 13:44 24,0 C 44 % 1010,5 hPa 0,0 l/m 10,4 km/h (2 Bft) NO 55 0 min 0 W/m 11,0 C 23,0 C 10,4 km/h (2 Bft)
25.06.2008 13:49 24,1 C 44 % 1010,5 hPa 0,0 l/m 14,3 km/h (3 Bft) O-NO 70 0 min 0 W/m 11,1 C 22,3 C 14,3 km/h (3 Bft)
25.06.2008 13:54 24,2 C 44 % 1010,5 hPa 0,0 l/m 8,2 km/h (2 Bft) SO 140 0 min 0 W/m 11,2 C 23,7 C 8,2 km/h (2 Bft)
25.06.2008 14:00 24,2 C 43 % 1010,5 hPa 0,0 l/m 15,1 km/h (3 Bft) O-NO 60 0 min 0 W/m 10,8 C 22,3 C 15,1 km/h (3 Bft)
25.06.2008 14:05 24,3 C 44 % 1010,5 hPa 0,0 l/m 14,0 km/h (3 Bft) O 95 0 min 0 W/m 11,3 C 22,6 C 14,0 km/h (3 Bft)
25.06.2008 14:10 24,4 C 44 % 1010,5 hPa 0,0 l/m 12,2 km/h (2 Bft) O-NO 70 0 min 0 W/m 11,3 C 23,1 C 12,2 km/h (2 Bft)
25.06.2008 14:15 24,4 C 44 % 1010,5 hPa 0,0 l/m 15,2 km/h (3 Bft) O 80 0 min 0 W/m 11,3 C 22,5 C 15,2 km/h (3 Bft)
25.06.2008 14:20 24,3 C 44 % 1010,5 hPa 0,0 l/m 11,6 km/h (2 Bft) O-NO 65 0 min 0 W/m 11,3 C 23,1 C 11,6 km/h (2 Bft)
25.06.2008 14:25 24,4 C 46 % 1010,5 hPa 0,0 l/m 10,1 km/h (2 Bft) O-NO 70 0 min 0 W/m 12,0 C 23,5 C 10,1 km/h (2 Bft)
25.06.2008 14:30 24,9 C 44 % 1010,5 hPa 0,0 l/m 7,4 km/h (2 Bft) NO 55 0 min 0 W/m 11,8 C 24,6 C 7,4 km/h (2 Bft)
25.06.2008 14:35 24,9 C 44 % 1010,5 hPa 0,0 l/m 8,2 km/h (2 Bft) O-NO 70 0 min 0 W/m 11,8 C 24,4 C 8,2 km/h (2 Bft)
25.06.2008 14:39 25,1 C 43 % 1010,5 hPa 0,0 l/m 11,2 km/h (2 Bft) O-NO 65 0 min 0 W/m 11,6 C 24,0 C 11,2 km/h (2 Bft)
25.06.2008 14:44 25,1 C 43 % 1010,5 hPa 0,0 l/m 8,4 km/h (2 Bft) NO 55 0 min 0 W/m 11,6 C 24,6 C 8,4 km/h (2 Bft)
25.06.2008 14:49 25,1 C 43 % 1010,5 hPa 0,0 l/m 11,5 km/h (2 Bft) NO 50 0 min 0 W/m 11,6 C 24,0 C 11,5 km/h (2 Bft)
25.06.2008 14:54 24,8 C 43 % 1010,5 hPa 0,0 l/m 7,2 km/h (2 Bft) O-NO 70 0 min 0 W/m 11,4 C 24,6 C 7,2 km/h (2 Bft)
25.06.2008 14:59 24,6 C 45 % 1010,5 hPa 0,0 l/m 5,4 km/h (2 Bft) O-NO 60 0 min 0 W/m 11,9 C 24,6 C 5,4 km/h (2 Bft)
25.06.2008 15:04 24,6 C 45 % 1010,5 hPa 0,0 l/m 8,3 km/h (2 Bft) O 90 0 min 0 W/m 11,9 C 24,1 C 8,3 km/h (2 Bft)
25.06.2008 15:09 24,8 C 45 % 1010,5 hPa 0,0 l/m 8,7 km/h (2 Bft) NO 50 0 min 0 W/m 12,0 C 24,2 C 8,7 km/h (2 Bft)
25.06.2008 15:15 25,2 C 45 % 1010,5 hPa 0,0 l/m 7,1 km/h (2 Bft) NO 40 0 min 0 W/m 12,4 C 25,0 C 7,1 km/h (2 Bft)
25.06.2008 15:20 25,0 C 43 % 1010,5 hPa 0,0 l/m 10,5 km/h (2 Bft) N 10 0 min 0 W/m 11,5 C 24,1 C 10,5 km/h (2 Bft)
25.06.2008 15:25 24,9 C 44 % 1010,5 hPa 0,0 l/m 7,8 km/h (2 Bft) N-NO 25 0 min 0 W/m 11,8 C 24,5 C 7,8 km/h (2 Bft)
25.06.2008 15:30 24,6 C 44 % 1010,5 hPa 0,0 l/m 10,8 km/h (2 Bft) NO 50 0 min 0 W/m 11,5 C 23,6 C 10,8 km/h (2 Bft)
25.06.2008 15:35 24,5 C 46 % 1010,5 hPa 0,0 l/m 10,6 km/h (2 Bft) NO 35 0 min 0 W/m 12,1 C 23,5 C 10,6 km/h (2 Bft)
25.06.2008 15:40 24,5 C 46 % 1010,5 hPa 0,0 l/m 6,6 km/h (2 Bft) NO 40 0 min 0 W/m 12,1 C 24,5 C 6,6 km/h (2 Bft)
25.06.2008 15:44 24,7 C 44 % 1010,5 hPa 0,0 l/m 8,3 km/h (2 Bft) N-NO 25 0 min 0 W/m 11,6 C 24,2 C 8,3 km/h (2 Bft)
25.06.2008 15:49 24,4 C 46 % 1010,5 hPa 0,0 l/m 9,1 km/h (2 Bft) N 355 0 min 0 W/m 12,0 C 23,7 C 9,1 km/h (2 Bft)
25.06.2008 15:54 24,4 C 46 % 1010,5 hPa 0,0 l/m 9,1 km/h (2 Bft) N-NO 15 0 min 0 W/m 12,0 C 23,7 C 9,1 km/h (2 Bft)
25.06.2008 15:59 24,2 C 46 % 1010,5 hPa 0,0 l/m 12,0 km/h (2 Bft) N-NO 15 0 min 0 W/m 11,8 C 22,9 C 12,0 km/h (2 Bft)
25.06.2008 16:04 24,0 C 47 % 1010,5 hPa 0,0 l/m 10,8 km/h (2 Bft) N 355 0 min 0 W/m 12,0 C 22,9 C 10,8 km/h (2 Bft)
25.06.2008 16:09 23,9 C 47 % 1010,5 hPa 0,0 l/m 10,0 km/h (2 Bft) N 355 0 min 0 W/m 11,9 C 22,9 C 10,0 km/h (2 Bft)
25.06.2008 16:10 23,9 C 47 % 1010,5 hPa 0,0 l/m 10,0 km/h (2 Bft) N 355 0 min 0 W/m 11,9 C 22,9 C 10,0 km/h (2 Bft)
25.06.2008 16:15 23,7 C 48 % 1010,5 hPa 0,0 l/m 4,5 km/h (1 Bft) N-NO 15 0 min 0 W/m 12,0 C 23,7 C 4,5 km/h (1 Bft)
25.06.2008 16:20 23,8 C 45 % 1009,5 hPa 0,0 l/m 8,1 km/h (2 Bft) N-NO 25 0 min 0 W/m 11,1 C 23,3 C 8,1 km/h (2 Bft)
25.06.2008 16:25 23,8 C 47 % 1009,5 hPa 0,0 l/m 8,6 km/h (2 Bft) N 360 0 min 0 W/m 11,8 C 23,2 C 8,6 km/h (2 Bft)
25.06.2008 16:30 23,6 C 45 % 1009,5 hPa 0,0 l/m 7,3 km/h (2 Bft) NO 35 0 min 0 W/m 11,0 C 23,3 C 7,3 km/h (2 Bft)
25.06.2008 16:35 23,4 C 47 % 1010,5 hPa 0,0 l/m 9,0 km/h (2 Bft) NO 40 0 min 0 W/m 11,4 C 22,6 C 9,0 km/h (2 Bft)
25.06.2008 16:39 23,2 C 48 % 1010,5 hPa 0,0 l/m 11,5 km/h (2 Bft) N 10 0 min 0 W/m 11,6 C 21,8 C 11,5 km/h (2 Bft)
25.06.2008 16:44 23,2 C 48 % 1009,5 hPa 0,0 l/m 1,9 km/h (1 Bft) N-NO 20 0 min 0 W/m 11,6 C 23,2 C 1,9 km/h (1 Bft)
25.06.2008 16:49 23,2 C 47 % 1009,5 hPa 0,0 l/m 4,5 km/h (1 Bft) N 5 0 min 0 W/m 11,3 C 23,2 C 4,5 km/h (1 Bft)
25.06.2008 16:54 23,5 C 48 % 1009,5 hPa 0,0 l/m 1,6 km/h (1 Bft) N 10 0 min 0 W/m 11,8 C 23,5 C 1,6 km/h (1 Bft)
25.06.2008 16:59 23,7 C 47 % 1009,5 hPa 0,0 l/m 9,0 km/h (2 Bft) N 5 0 min 0 W/m 11,7 C 23,0 C 9,0 km/h (2 Bft)
25.06.2008 17:04 24,0 C 47 % 1010,5 hPa 0,0 l/m 7,6 km/h (2 Bft) N 10 0 min 0 W/m 12,0 C 23,7 C 7,6 km/h (2 Bft)
25.06.2008 17:09 23,7 C 47 % 1010,5 hPa 0,0 l/m 10,1 km/h (2 Bft) N-NO 20 0 min 0 W/m 11,7 C 22,7 C 10,1 km/h (2 Bft)
25.06.2008 17:15 23,5 C 48 % 1010,5 hPa 0,0 l/m 6,4 km/h (2 Bft) N 355 0 min 0 W/m 11,8 C 23,5 C 6,4 km/h (2 Bft)
25.06.2008 17:20 23,5 C 48 % 1010,5 hPa 0,0 l/m 7,3 km/h (2 Bft) O-NO 75 0 min 0 W/m 11,8 C 23,2 C 7,3 km/h (2 Bft)
25.06.2008 17:25 23,7 C 48 % 1010,5 hPa 0,0 l/m 4,5 km/h (1 Bft) NO 40 0 min 0 W/m 12,0 C 23,7 C 4,5 km/h (1 Bft)
25.06.2008 17:30 24,1 C 47 % 1010,5 hPa 0,0 l/m 7,6 km/h (2 Bft) N-NO 20 0 min 0 W/m 12,1 C 23,8 C 7,6 km/h (2 Bft)
25.06.2008 17:35 24,0 C 47 % 1010,5 hPa 0,0 l/m 6,2 km/h (2 Bft) N-NO 20 0 min 0 W/m 12,0 C 24,0 C 6,2 km/h (2 Bft)
25.06.2008 17:40 24,0 C 47 % 1010,5 hPa 0,0 l/m 0,0 km/h (0 Bft) NO 45 0 min 0 W/m 12,0 C 24,0 C 0,0 km/h (0 Bft)
25.06.2008 17:44 24,1 C 47 % 1010,5 hPa 0,0 l/m 0,0 km/h (0 Bft) N-NO 15 0 min 0 W/m 12,1 C 24,1 C 0,0 km/h (0 Bft)
25.06.2008 17:49 24,2 C 47 % 1010,5 hPa 0,0 l/m 0,1 km/h (0 Bft) NO 50 0 min 0 W/m 12,2 C 24,2 C 0,1 km/h (0 Bft)
25.06.2008 17:54 23,9 C 47 % 1010,5 hPa 0,0 l/m 0,1 km/h (0 Bft) O-NO 60 0 min 0 W/m 11,9 C 23,9 C 0,1 km/h (0 Bft)
25.06.2008 17:59 23,8 C 47 % 1010,5 hPa 0,0 l/m 0,1 km/h (0 Bft) O-NO 60 0 min 0 W/m 11,8 C 23,8 C 0,1 km/h (0 Bft)
25.06.2008 18:04 23,8 C 47 % 1010,5 hPa 0,0 l/m 0,2 km/h (0 Bft) N-NO 30 0 min 0 W/m 11,8 C 23,8 C 0,2 km/h (0 Bft)
25.06.2008 18:09 23,7 C 47 % 1010,5 hPa 0,0 l/m 0,0 km/h (0 Bft) NO 35 0 min 0 W/m 11,7 C 23,7 C 0,0 km/h (0 Bft)
25.06.2008 18:15 23,3 C 48 % 1009,5 hPa 0,0 l/m 0,4 km/h (0 Bft) NO 45 0 min 0 W/m 11,7 C 23,3 C 0,4 km/h (0 Bft)
25.06.2008 18:20 23,2 C 49 % 1009,5 hPa 0,0 l/m 0,1 km/h (0 Bft) O-NO 70 0 min 0 W/m 11,9 C 23,2 C 0,1 km/h (0 Bft)
25.06.2008 18:25 23,1 C 49 % 1009,5 hPa 0,0 l/m 0,1 km/h (0 Bft) O-NO 70 0 min 0 W/m 11,8 C 23,1 C 0,1 km/h (0 Bft)
25.06.2008 18:30 23,2 C 50 % 1009,5 hPa 0,0 l/m 1,2 km/h (1 Bft) O-NO 70 0 min 0 W/m 12,2 C 23,2 C 1,2 km/h (1 Bft)
25.06.2008 18:35 23,2 C 49 % 1009,5 hPa 0,0 l/m 5,0 km/h (1 Bft) O 90 0 min 0 W/m 11,9 C 23,2 C 5,0 km/h (1 Bft)
25.06.2008 18:39 23,0 C 49 % 1009,5 hPa 0,0 l/m 3,6 km/h (1 Bft) NO 55 0 min 0 W/m 11,7 C 23,0 C 3,6 km/h (1 Bft)
25.06.2008 18:44 22,8 C 50 % 1009,5 hPa 0,0 l/m 0,4 km/h (0 Bft) O 85 0 min 0 W/m 11,8 C 22,8 C 0,4 km/h (0 Bft)
25.06.2008 18:49 22,6 C 51 % 1009,5 hPa 0,0 l/m 2,4 km/h (1 Bft) O-NO 60 0 min 0 W/m 11,9 C 22,6 C 2,4 km/h (1 Bft)
25.06.2008 18:54 22,5 C 51 % 1009,5 hPa 0,0 l/m 0,3 km/h (0 Bft) NO 50 0 min 0 W/m 11,8 C 22,5 C 0,3 km/h (0 Bft)
25.06.2008 18:59 22,4 C 51 % 1009,5 hPa 0,0 l/m 0,1 km/h (0 Bft) NO 45 0 min 0 W/m 11,8 C 22,4 C 0,1 km/h (0 Bft)
25.06.2008 19:04 22,3 C 52 % 1009,5 hPa 0,0 l/m 0,4 km/h (0 Bft) N-NO 20 0 min 0 W/m 12,0 C 22,3 C 0,4 km/h (0 Bft)
25.06.2008 19:05 22,3 C 52 % 1009,5 hPa 0,0 l/m 0,4 km/h (0 Bft) N-NO 20 0 min 0 W/m 12,0 C 22,3 C 0,4 km/h (0 Bft)
25.06.2008 19:10 22,2 C 53 % 1009,5 hPa 0,0 l/m 4,1 km/h (1 Bft) NO 55 0 min 0 W/m 12,2 C 22,2 C 4,1 km/h (1 Bft)
25.06.2008 19:15 22,2 C 54 % 1009,5 hPa 0,0 l/m 3,1 km/h (1 Bft) O 90 0 min 0 W/m 12,4 C 22,2 C 3,1 km/h (1 Bft)
25.06.2008 19:20 22,2 C 55 % 1009,5 hPa 0,0 l/m 0,5 km/h (0 Bft) O 80 0 min 0 W/m 12,7 C 22,2 C 0,5 km/h (0 Bft)
25.06.2008 19:25 22,4 C 54 % 1009,5 hPa 0,0 l/m 0,0 km/h (0 Bft) NO 45 0 min 0 W/m 12,6 C 22,4 C 0,0 km/h (0 Bft)
25.06.2008 19:30 22,6 C 53 % 1009,5 hPa 0,0 l/m 0,0 km/h (0 Bft) NO 45 0 min 0 W/m 12,5 C 22,6 C 0,0 km/h (0 Bft)
25.06.2008 19:34 22,7 C 53 % 1009,5 hPa 0,0 l/m 0,0 km/h (0 Bft) N-NO 30 0 min 0 W/m 12,6 C 22,7 C 0,0 km/h (0 Bft)
25.06.2008 19:39 22,6 C 53 % 1009,5 hPa 0,0 l/m 0,5 km/h (0 Bft) W 280 0 min 0 W/m 12,5 C 22,6 C 0,5 km/h (0 Bft)
25.06.2008 19:44 22,4 C 53 % 1009,5 hPa 0,0 l/m 0,4 km/h (0 Bft) NW 315 0 min 0 W/m 12,3 C 22,4 C 0,4 km/h (0 Bft)
25.06.2008 19:49 22,0 C 54 % 1010,5 hPa 0,0 l/m 6,3 km/h (2 Bft) N 5 0 min 0 W/m 12,3 C 22,0 C 6,3 km/h (2 Bft)
25.06.2008 19:55 21,6 C 55 % 1010,5 hPa 0,0 l/m 0,3 km/h (0 Bft) N 360 0 min 0 W/m 12,2 C 21,6 C 0,3 km/h (0 Bft)
25.06.2008 20:00 21,6 C 56 % 1010,5 hPa 0,0 l/m 0,7 km/h (0 Bft) W-NW 300 0 min 0 W/m 12,4 C 21,6 C 0,7 km/h (0 Bft)
25.06.2008 20:05 21,6 C 55 % 1010,5 hPa 0,0 l/m 3,9 km/h (1 Bft) NW 310 0 min 0 W/m 12,2 C 21,6 C 3,9 km/h (1 Bft)
25.06.2008 20:10 21,4 C 52 % 1010,5 hPa 0,0 l/m 6,4 km/h (2 Bft) NW 315 0 min 0 W/m 11,1 C 21,4 C 6,4 km/h (2 Bft)
25.06.2008 20:15 21,3 C 53 % 1010,5 hPa 0,0 l/m 6,8 km/h (2 Bft) NW 315 0 min 0 W/m 11,3 C 21,2 C 6,8 km/h (2 Bft)
25.06.2008 20:20 21,2 C 52 % 1010,5 hPa 0,0 l/m 6,7 km/h (2 Bft) W 280 0 min 0 W/m 10,9 C 21,1 C 6,7 km/h (2 Bft)
25.06.2008 20:25 21,1 C 57 % 1010,5 hPa 0,0 l/m 8,9 km/h (2 Bft) W 260 0 min 0 W/m 12,2 C 20,2 C 8,9 km/h (2 Bft)
25.06.2008 20:29 20,8 C 59 % 1010,5 hPa 0,0 l/m 18,3 km/h (3 Bft) W-NW 285 0 min 0 W/m 12,5 C 17,5 C 18,3 km/h (3 Bft)
25.06.2008 20:34 20,8 C 59 % 1010,5 hPa 0,0 l/m 23,8 km/h (4 Bft) W-NW 295 0 min 0 W/m 12,5 C 16,6 C 23,8 km/h (4 Bft)
25.06.2008 20:39 20,7 C 63 % 1010,5 hPa 0,0 l/m 28,2 km/h (5 Bft) W 275 0 min 0 W/m 13,4 C 15,9 C 28,2 km/h (5 Bft)
25.06.2008 20:44 20,4 C 67 % 1011,5 hPa 0,0 l/m 27,1 km/h (5 Bft) W-NW 285 0 min 0 W/m 14,1 C 15,6 C 27,1 km/h (5 Bft)
25.06.2008 20:50 20,2 C 68 % 1011,5 hPa 0,0 l/m 22,6 km/h (4 Bft) W-NW 285 0 min 0 W/m 14,1 C 16,0 C 22,6 km/h (4 Bft)
25.06.2008 20:55 20,0 C 69 % 1011,5 hPa 0,0 l/m 29,3 km/h (5 Bft) W-NW 295 0 min 0 W/m 14,1 C 14,8 C 29,3 km/h (5 Bft)
25.06.2008 21:00 19,6 C 70 % 1011,5 hPa 0,0 l/m 27,6 km/h (5 Bft) W-NW 295 0 min 0 W/m 14,0 C 14,5 C 27,6 km/h (5 Bft)
25.06.2008 21:05 19,5 C 70 % 1011,5 hPa 0,0 l/m 22,6 km/h (4 Bft) W-NW 290 0 min 0 W/m 13,9 C 15,1 C 22,6 km/h (4 Bft)
25.06.2008 21:10 19,1 C 69 % 1011,5 hPa 0,0 l/m 27,0 km/h (5 Bft) W-NW 290 0 min 0 W/m 13,3 C 13,9 C 27,0 km/h (5 Bft)
25.06.2008 21:15 18,9 C 70 % 1011,5 hPa 0,0 l/m 31,5 km/h (5 Bft) NW 305 0 min 0 W/m 13,3 C 13,0 C 31,5 km/h (5 Bft)
25.06.2008 21:20 18,7 C 71 % 1011,5 hPa 0,0 l/m 33,7 km/h (5 Bft) W-NW 295 0 min 0 W/m 13,3 C 12,4 C 33,7 km/h (5 Bft)
25.06.2008 21:24 18,6 C 72 % 1011,5 hPa 0,0 l/m 27,7 km/h (5 Bft) NW 305 0 min 0 W/m 13,4 C 13,1 C 27,7 km/h (5 Bft)
25.06.2008 21:29 18,5 C 73 % 1011,5 hPa 0,0 l/m 31,6 km/h (5 Bft) W-NW 300 0 min 0 W/m 13,6 C 12,4 C 31,6 km/h (5 Bft)
25.06.2008 21:34 18,3 C 73 % 1011,5 hPa 0,0 l/m 25,0 km/h (4 Bft) W-NW 285 0 min 0 W/m 13,4 C 13,1 C 25,0 km/h (4 Bft)
25.06.2008 21:39 18,3 C 73 % 1011,5 hPa 0,0 l/m 19,5 km/h (3 Bft) W-NW 295 0 min 0 W/m 13,4 C 14,1 C 19,5 km/h (3 Bft)
25.06.2008 21:44 18,1 C 75 % 1011,5 hPa 0,0 l/m 25,3 km/h (4 Bft) W-NW 295 0 min 0 W/m 13,6 C 12,8 C 25,3 km/h (4 Bft)
25.06.2008 21:50 18,0 C 74 % 1011,5 hPa 0,0 l/m 28,4 km/h (5 Bft) W-NW 295 0 min 0 W/m 13,3 C 12,1 C 28,4 km/h (5 Bft)
25.06.2008 21:55 17,9 C 75 % 1011,5 hPa 0,0 l/m 29,1 km/h (5 Bft) W-NW 300 0 min 0 W/m 13,4 C 11,9 C 29,1 km/h (5 Bft)
25.06.2008 22:00 17,9 C 74 % 1011,5 hPa 0,0 l/m 24,3 km/h (4 Bft) W-NW 290 0 min 0 W/m 13,2 C 12,7 C 24,3 km/h (4 Bft)
25.06.2008 22:05 17,9 C 72 % 1011,5 hPa 0,0 l/m 24,1 km/h (4 Bft) W-NW 285 0 min 0 W/m 12,8 C 12,7 C 24,1 km/h (4 Bft)
25.06.2008 22:10 17,9 C 72 % 1011,5 hPa 0,0 l/m 27,6 km/h (5 Bft) W-NW 290 0 min 0 W/m 12,8 C 12,1 C 27,6 km/h (5 Bft)
25.06.2008 22:15 17,9 C 71 % 1011,5 hPa 0,0 l/m 26,5 km/h (4 Bft) NW 305 0 min 0 W/m 12,6 C 12,3 C 26,5 km/h (4 Bft)
25.06.2008 22:20 17,8 C 72 % 1012,5 hPa 0,0 l/m 26,6 km/h (4 Bft) W-NW 295 0 min 0 W/m 12,7 C 12,1 C 26,6 km/h (4 Bft)
25.06.2008 22:24 17,6 C 72 % 1012,5 hPa 0,0 l/m 24,4 km/h (4 Bft) W-NW 300 0 min 0 W/m 12,5 C 12,2 C 24,4 km/h (4 Bft)
25.06.2008 22:29 17,6 C 72 % 1012,5 hPa 0,0 l/m 28,5 km/h (5 Bft) W-NW 290 0 min 0 W/m 12,5 C 11,6 C 28,5 km/h (5 Bft)
25.06.2008 22:34 17,6 C 72 % 1012,5 hPa 0,0 l/m 20,9 km/h (4 Bft) NW 305 0 min 0 W/m 12,5 C 12,9 C 20,9 km/h (4 Bft)
25.06.2008 22:39 17,6 C 72 % 1012,5 hPa 0,0 l/m 20,4 km/h (4 Bft) W-NW 295 0 min 0 W/m 12,5 C 13,0 C 20,4 km/h (4 Bft)
25.06.2008 22:40 17,6 C 72 % 1012,5 hPa 0,0 l/m 20,4 km/h (4 Bft) W-NW 295 0 min 0 W/m 12,5 C 13,0 C 20,4 km/h (4 Bft)
25.06.2008 22:45 17,6 C 72 % 1012,5 hPa 0,0 l/m 29,6 km/h (5 Bft) W-NW 290 0 min 0 W/m 12,5 C 11,4 C 29,6 km/h (5 Bft)
25.06.2008 22:50 17,4 C 72 % 1012,5 hPa 0,0 l/m 26,7 km/h (4 Bft) W-NW 300 0 min 0 W/m 12,3 C 11,6 C 26,7 km/h (4 Bft)
25.06.2008 22:55 17,4 C 72 % 1012,5 hPa 0,0 l/m 27,8 km/h (5 Bft) NW 310 0 min 0 W/m 12,3 C 11,4 C 27,8 km/h (5 Bft)
25.06.2008 23:00 17,4 C 72 % 1012,5 hPa 0,0 l/m 22,7 km/h (4 Bft) NW 310 0 min 0 W/m 12,3 C 12,3 C 22,7 km/h (4 Bft)
25.06.2008 23:05 17,3 C 73 % 1012,5 hPa 0,0 l/m 22,6 km/h (4 Bft) W-NW 295 0 min 0 W/m 12,4 C 12,2 C 22,6 km/h (4 Bft)
25.06.2008 23:10 17,2 C 73 % 1012,5 hPa 0,0 l/m 22,1 km/h (4 Bft) W-NW 285 0 min 0 W/m 12,3 C 12,1 C 22,1 km/h (4 Bft)
25.06.2008 23:14 17,1 C 75 % 1012,5 hPa 0,0 l/m 20,0 km/h (4 Bft) W-NW 295 0 min 0 W/m 12,6 C 12,5 C 20,0 km/h (4 Bft)
25.06.2008 23:19 17,0 C 75 % 1012,5 hPa 0,0 l/m 20,0 km/h (4 Bft) W-NW 295 0 min 0 W/m 12,5 C 12,3 C 20,0 km/h (4 Bft)
25.06.2008 23:24 17,0 C 75 % 1012,5 hPa 0,0 l/m 17,6 km/h (3 Bft) W-NW 295 0 min 0 W/m 12,5 C 12,9 C 17,6 km/h (3 Bft)
25.06.2008 23:29 16,9 C 75 % 1012,5 hPa 0,0 l/m 20,8 km/h (4 Bft) W-NW 295 0 min 0 W/m 12,4 C 12,0 C 20,8 km/h (4 Bft)
25.06.2008 23:30 16,9 C 75 % 1012,5 hPa 0,0 l/m 20,8 km/h (4 Bft) W-NW 295 0 min 0 W/m 12,4 C 12,0 C 20,8 km/h (4 Bft)
25.06.2008 23:35 16,9 C 76 % 1012,5 hPa 0,0 l/m 23,3 km/h (4 Bft) W-NW 295 0 min 0 W/m 12,6 C 11,5 C 23,3 km/h (4 Bft)
25.06.2008 23:40 16,9 C 76 % 1012,5 hPa 0,0 l/m 24,3 km/h (4 Bft) W-NW 295 0 min 0 W/m 12,6 C 11,3 C 24,3 km/h (4 Bft)
25.06.2008 23:45 16,8 C 76 % 1012,5 hPa 0,0 l/m 21,9 km/h (4 Bft) NW 310 0 min 0 W/m 12,5 C 11,7 C 21,9 km/h (4 Bft)
25.06.2008 23:50 16,8 C 77 % 1012,5 hPa 0,0 l/m 18,3 km/h (3 Bft) W-NW 290 0 min 0 W/m 12,7 C 12,5 C 18,3 km/h (3 Bft)
25.06.2008 23:54 16,8 C 78 % 1012,5 hPa 0,0 l/m 20,4 km/h (4 Bft) NW 305 0 min 0 W/m 12,9 C 12,0 C 20,4 km/h (4 Bft)
25.06.2008 23:59 16,8 C 78 % 1012,5 hPa 0,0 l/m 19,7 km/h (3 Bft) W-NW 300 0 min 0 W/m 12,9 C 12,1 C 19,7 km/h (3 Bft)
_ Min-Zeit 02:35 13:30 16:20 - 17:40 - - - - 01:50 04:25 17:40
Minimum _ 11,3 C 43 % 1009,5 hPa - 0,0 km/h (0 Bft) - - - - 7,4 C 6,7 C 0,0 km/h (0 Bft)
_ Max-Zeit 15:15 04:49 00:00 00:00 21:20 - - 00:00 00:00 20:55 15:15 21:20
Maximum _ 25,2 C 83 % 1017,5 hPa 0,0 l/m 33,7 km/h
W-NW (5 Bft)
- - 0 min 0 W/m 14,1 C 25,0 C 33,7 km/h
W-NW (5 Bft)
Durchschnitt _ 18,4 C 63 % 1012,7 hPa #0,0 l/m 12,8 km/h (3 Bft) SO - #0 min. 0 W/m 10,7 C 16,0 C 12,8 km/h (3 Bft)
copyright by Holger Just